Time;durP1;ratioP1;P1;durP2;ratioP2;P2;SDS_P1;SDS_P2;PMS_P1;PMS_P2;Temp;Humidity;BMP_temperature;BMP_pressure;BME280_temperature;BME280_humidity;BME280_pressure;Samples;Min_cycle;Max_cycle;Signal;HPM_P1;HPM_P2
2023/01/15 00:01:34;;;;;;;13.93;3.03;;;;;;;;;;5015327;28;20425;-77
2023/01/15 00:04:04;;;;;;;6.47;2.80;;;;;;;;;;5015350;28;20121;-77
2023/01/15 00:06:31;;;;;;;7.38;2.70;;;;;;;;;;5016938;28;20041;-77
2023/01/15 00:08:57;;;;;;;7.55;2.50;;;;;;;;;;5021806;28;20042;-77
2023/01/15 00:11:24;;;;;;;12.32;2.72;;;;;;;;;;5019740;28;20132;-77
2023/01/15 00:13:50;;;;;;;10.75;2.78;;;;;;;;;;5015765;28;20122;-77
2023/01/15 00:16:17;;;;;;;10.70;2.53;;;;;;;;;;5017258;28;20038;-77
2023/01/15 00:18:43;;;;;;;7.80;2.38;;;;;;;;;;5022593;28;20045;-77
2023/01/15 00:21:11;;;;;;;10.15;2.42;;;;;;;;;;5016306;28;20042;-77
2023/01/15 00:29:10;;;;;;;8.93;2.42;;;;;;;;;;5043898;28;20148;-77
2023/01/15 00:31:36;;;;;;;11.00;2.70;;;;;;;;;;5019508;28;20168;-77
2023/01/15 00:34:03;;;;;;;11.48;2.65;;;;;;;;;;5016065;28;20049;-77
2023/01/15 00:36:29;;;;;;;15.50;3.10;;;;;;;;;;5015221;28;20073;-77
2023/01/15 00:38:55;;;;;;;9.20;2.83;;;;;;;;;;5016076;28;20049;-77
2023/01/15 00:41:21;;;;;;;14.68;2.95;;;;;;;;;;5013321;28;20048;-77
2023/01/15 00:43:47;;;;;;;9.82;2.95;;;;;;;;;;5036092;28;20076;-77
2023/01/15 00:46:13;;;;;;;9.93;3.08;;;;;;;;;;5029251;28;20100;-77
2023/01/15 00:48:39;;;;;;;11.52;2.95;;;;;;;;;;5026216;28;20041;-77
2023/01/15 00:51:06;;;;;;;11.98;2.95;;;;;;;;;;5034402;28;20053;-77
2023/01/15 00:53:32;;;;;;;13.43;3.17;;;;;;;;;;5024545;28;20042;-77
2023/01/15 00:55:58;;;;;;;9.60;2.85;;;;;;;;;;5035403;28;20074;-76
2023/01/15 00:58:24;;;;;;;12.43;3.00;;;;;;;;;;5024761;28;20037;-77
2023/01/15 01:00:54;;;;;;;10.32;3.45;;;;;;;;;;5014674;28;20042;-77
2023/01/15 01:03:20;;;;;;;10.80;3.28;;;;;;;;;;5014431;28;20385;-77
2023/01/15 01:05:46;;;;;;;12.10;2.83;;;;;;;;;;5024170;28;20116;-77
2023/01/15 01:08:13;;;;;;;13.02;2.60;;;;;;;;;;5016249;28;20042;-77
2023/01/15 01:10:39;;;;;;;7.88;2.40;;;;;;;;;;5031459;28;20337;-77
2023/01/15 01:13:05;;;;;;;14.68;3.13;;;;;;;;;;5019455;28;20456;-77
2023/01/15 01:15:35;;;;;;;9.65;3.13;;;;;;;;;;5034232;28;20041;-77
2023/01/15 01:18:01;;;;;;;14.13;3.38;;;;;;;;;;5022108;28;20129;-77
2023/01/15 01:20:27;;;;;;;9.15;2.65;;;;;;;;;;5015034;28;20512;-76
2023/01/15 01:22:54;;;;;;;10.60;2.78;;;;;;;;;;5022259;28;20037;-77
2023/01/15 01:25:20;;;;;;;10.18;2.53;;;;;;;;;;5017558;28;20053;-77
2023/01/15 01:27:46;;;;;;;10.02;2.65;;;;;;;;;;5014099;28;20042;-77
2023/01/15 01:30:12;;;;;;;11.60;2.65;;;;;;;;;;5019921;28;20060;-77
2023/01/15 01:32:39;;;;;;;8.35;2.85;;;;;;;;;;5014859;28;20052;-77
2023/01/15 01:35:05;;;;;;;10.95;2.42;;;;;;;;;;5015188;28;20221;-77
2023/01/15 01:37:31;;;;;;;8.55;2.78;;;;;;;;;;5015120;28;20077;-77
2023/01/15 01:39:57;;;;;;;9.15;3.00;;;;;;;;;;5015134;28;20104;-77
2023/01/15 01:42:24;;;;;;;9.38;2.63;;;;;;;;;;5013439;28;20088;-77
2023/01/15 01:44:50;;;;;;;8.52;2.35;;;;;;;;;;5021842;28;20042;-77
2023/01/15 01:47:21;;;;;;;12.18;2.70;;;;;;;;;;5024728;28;20042;-77
2023/01/15 01:49:48;;;;;;;9.10;2.50;;;;;;;;;;5015730;28;20077;-77
2023/01/15 01:52:16;;;;;;;11.00;2.95;;;;;;;;;;5014838;28;20109;-77
2023/01/15 01:54:43;;;;;;;13.60;2.80;;;;;;;;;;5013942;28;20042;-77
2023/01/15 01:57:10;;;;;;;14.13;3.45;;;;;;;;;;5014916;28;20045;-77
2023/01/15 01:59:36;;;;;;;10.57;2.80;;;;;;;;;;5015766;28;20096;-77
2023/01/15 02:02:03;;;;;;;13.07;3.55;;;;;;;;;;5020610;28;20037;-77
2023/01/15 02:04:29;;;;;;;10.73;2.67;;;;;;;;;;5033049;28;20488;-77
2023/01/15 02:06:56;;;;;;;14.70;3.38;;;;;;;;;;5021349;28;20077;-77
2023/01/15 02:09:22;;;;;;;9.68;3.17;;;;;;;;;;5018750;28;20108;-76
2023/01/15 02:11:54;;;;;;;9.15;2.75;;;;;;;;;;5028611;28;20053;-77
2023/01/15 02:14:31;;;;;;;13.07;3.13;;;;;;;;;;5026143;28;20135;-77
2023/01/15 02:17:05;;;;;;;11.48;3.03;;;;;;;;;;5028733;28;20054;-77
2023/01/15 02:19:54;;;;;;;9.45;2.55;;;;;;;;;;5012403;28;20045;-76
2023/01/15 02:22:22;;;;;;;9.63;2.33;;;;;;;;;;5023546;28;20038;-77
2023/01/15 02:25:07;;;;;;;14.15;2.78;;;;;;;;;;5031822;28;20491;-77
2023/01/15 02:27:34;;;;;;;13.07;3.05;;;;;;;;;;5016819;28;20558;-77
2023/01/15 02:30:12;;;;;;;11.68;3.03;;;;;;;;;;5006584;28;20052;-77
2023/01/15 02:32:41;;;;;;;16.00;2.85;;;;;;;;;;5027769;28;20038;-77
2023/01/15 02:35:17;;;;;;;10.50;2.53;;;;;;;;;;5032970;28;20041;-76
2023/01/15 02:37:46;;;;;;;8.57;2.40;;;;;;;;;;5030293;28;20072;-77
2023/01/15 02:40:13;;;;;;;12.85;3.25;;;;;;;;;;5018797;28;20093;-77
2023/01/15 02:42:40;;;;;;;10.00;2.67;;;;;;;;;;5011920;28;20049;-77
2023/01/15 02:45:08;;;;;;;12.90;3.13;;;;;;;;;;5033824;28;20049;-77
2023/01/15 02:47:36;;;;;;;14.90;3.28;;;;;;;;;;5013276;28;20053;-76
2023/01/15 02:50:04;;;;;;;8.50;2.67;;;;;;;;;;5002289;28;20124;-77
2023/01/15 02:52:32;;;;;;;10.80;2.83;;;;;;;;;;5013033;28;20042;-77
2023/01/15 02:55:22;;;;;;;11.88;2.95;;;;;;;;;;5014337;28;20116;-77
2023/01/15 02:57:50;;;;;;;14.10;3.40;;;;;;;;;;5014626;28;20133;-76
2023/01/15 03:00:17;;;;;;;12.50;2.58;;;;;;;;;;5024107;28;20506;-77
2023/01/15 03:02:48;;;;;;;8.90;2.83;;;;;;;;;;5030788;28;20484;-76
2023/01/15 03:05:20;;;;;;;9.52;2.40;;;;;;;;;;5018221;28;20125;-77
2023/01/15 03:07:47;;;;;;;9.75;3.00;;;;;;;;;;5013756;28;20097;-77
2023/01/15 03:10:14;;;;;;;10.20;2.30;;;;;;;;;;5012776;28;20049;-77
2023/01/15 03:13:01;;;;;;;6.70;2.50;;;;;;;;;;5016746;28;20058;-77
2023/01/15 03:18:14;;;;;;;7.85;2.88;;;;;;;;;;5008058;28;1121596;-77
2023/01/15 03:20:43;;;;;;;14.35;3.15;;;;;;;;;;5013498;28;20050;-77
2023/01/15 03:23:11;;;;;;;9.90;2.88;;;;;;;;;;5025907;28;20050;-77
2023/01/15 03:25:39;;;;;;;16.00;3.60;;;;;;;;;;5013866;28;20038;-77
2023/01/15 03:28:07;;;;;;;12.02;2.35;;;;;;;;;;5014541;28;20073;-77
2023/01/15 03:30:33;;;;;;;10.82;2.90;;;;;;;;;;5028489;28;20073;-76
2023/01/15 03:32:59;;;;;;;8.70;2.45;;;;;;;;;;4995909;28;20112;-77
2023/01/15 03:35:58;;;;;;;10.63;2.65;;;;;;;;;;5012395;28;20065;-76
2023/01/15 03:38:29;;;;;;;11.90;2.75;;;;;;;;;;4980243;28;20133;-77
2023/01/15 03:41:14;;;;;;;9.35;2.55;;;;;;;;;;5022294;28;20116;-76
2023/01/15 03:43:40;;;;;;;15.43;3.70;;;;;;;;;;5027566;28;20032;-76
2023/01/15 03:46:09;;;;;;;12.25;2.72;;;;;;;;;;5019831;28;20048;-76
2023/01/15 03:48:40;;;;;;;14.57;2.90;;;;;;;;;;5023960;28;20051;-76
2023/01/15 03:51:13;;;;;;;10.57;2.80;;;;;;;;;;5030393;28;20041;-76
2023/01/15 03:53:39;;;;;;;11.63;2.70;;;;;;;;;;5014141;28;20129;-76
2023/01/15 03:56:08;;;;;;;11.35;2.95;;;;;;;;;;5013441;28;20121;-76
2023/01/15 03:58:46;;;;;;;9.80;3.17;;;;;;;;;;5013261;28;20337;-76
2023/01/15 04:01:14;;;;;;;14.82;2.70;;;;;;;;;;5013099;28;20041;-76
2023/01/15 04:03:41;;;;;;;7.25;2.67;;;;;;;;;;5018718;28;20049;-77
2023/01/15 04:06:08;;;;;;;12.32;2.58;;;;;;;;;;5020302;28;20498;-77
2023/01/15 04:08:37;;;;;;;8.80;2.30;;;;;;;;;;5033130;28;20046;-76
2023/01/15 04:11:03;;;;;;;10.98;2.55;;;;;;;;;;5036471;28;20041;-76
2023/01/15 04:13:29;;;;;;;10.65;2.70;;;;;;;;;;5051652;28;20589;-76
2023/01/15 04:15:55;;;;;;;10.95;2.92;;;;;;;;;;5034777;28;20076;-77
2023/01/15 04:18:22;;;;;;;9.52;2.47;;;;;;;;;;5035034;28;20053;-76
2023/01/15 04:20:48;;;;;;;11.40;2.72;;;;;;;;;;5021035;28;20042;-77
2023/01/15 04:23:15;;;;;;;7.38;2.35;;;;;;;;;;5012581;28;20104;-77
2023/01/15 04:25:41;;;;;;;10.48;2.60;;;;;;;;;;5016377;28;20038;-77
2023/01/15 04:28:08;;;;;;;10.45;3.17;;;;;;;;;;5033695;28;20052;-77
2023/01/15 04:30:34;;;;;;;13.00;2.90;;;;;;;;;;5027106;28;20034;-76
2023/01/15 04:33:00;;;;;;;10.88;2.40;;;;;;;;;;5016280;28;20085;-76
2023/01/15 04:35:26;;;;;;;9.93;2.33;;;;;;;;;;5015464;28;20060;-76
2023/01/15 04:37:56;;;;;;;10.88;2.72;;;;;;;;;;5031548;28;20050;-77
2023/01/15 04:45:53;;;;;;;10.40;2.80;;;;;;;;;;5036153;28;20048;-76
2023/01/15 04:48:19;;;;;;;9.45;2.83;;;;;;;;;;5034862;28;20049;-76
2023/01/15 04:50:45;;;;;;;11.63;3.13;;;;;;;;;;5035693;28;20045;-76
2023/01/15 04:53:11;;;;;;;12.85;2.83;;;;;;;;;;5017379;28;20045;-76
2023/01/15 04:55:37;;;;;;;11.07;2.85;;;;;;;;;;5019296;28;20103;-76
2023/01/15 04:58:03;;;;;;;12.00;2.70;;;;;;;;;;5030323;28;20041;-76
2023/01/15 05:00:29;;;;;;;13.00;3.25;;;;;;;;;;5034842;28;20042;-76
2023/01/15 05:02:55;;;;;;;13.30;2.53;;;;;;;;;;5016304;28;20048;-76
2023/01/15 05:05:21;;;;;;;8.02;2.30;;;;;;;;;;5015807;28;20188;-76
2023/01/15 05:07:48;;;;;;;13.32;2.83;;;;;;;;;;5015722;28;20389;-77
2023/01/15 05:10:14;;;;;;;12.43;2.70;;;;;;;;;;5018704;28;20469;-77
2023/01/15 05:12:40;;;;;;;14.43;2.50;;;;;;;;;;5035597;28;20053;-77
2023/01/15 05:15:06;;;;;;;10.88;2.50;;;;;;;;;;5035891;28;20140;-76
2023/01/15 05:17:32;;;;;;;7.32;2.45;;;;;;;;;;5024449;28;20058;-77
2023/01/15 05:19:58;;;;;;;24.20;2.85;;;;;;;;;;5018558;28;20179;-76
2023/01/15 05:22:24;;;;;;;7.60;2.85;;;;;;;;;;5019633;28;20042;-76
2023/01/15 05:24:51;;;;;;;9.18;2.75;;;;;;;;;;5030760;28;20047;-76
2023/01/15 05:27:17;;;;;;;9.07;2.65;;;;;;;;;;5016247;28;20053;-76
2023/01/15 05:29:43;;;;;;;10.23;2.63;;;;;;;;;;4998429;28;20133;-76
2023/01/15 05:32:09;;;;;;;10.10;2.70;;;;;;;;;;5022454;28;20057;-76
2023/01/15 05:34:35;;;;;;;9.85;2.40;;;;;;;;;;5034823;28;20042;-76
2023/01/15 05:37:01;;;;;;;11.43;2.55;;;;;;;;;;5019567;28;20052;-76
2023/01/15 05:39:28;;;;;;;8.77;2.55;;;;;;;;;;5015022;28;20128;-77
2023/01/15 05:41:54;;;;;;;10.30;2.90;;;;;;;;;;5014901;28;20350;-77
2023/01/15 05:44:21;;;;;;;10.73;2.75;;;;;;;;;;5013694;28;20491;-76
2023/01/15 05:46:48;;;;;;;12.00;3.50;;;;;;;;;;5022617;28;20040;-77
2023/01/15 05:49:16;;;;;;;11.27;3.15;;;;;;;;;;5034124;28;20037;-77
2023/01/15 05:51:42;;;;;;;8.57;2.67;;;;;;;;;;5034011;28;20073;-77
2023/01/15 05:54:12;;;;;;;12.57;2.60;;;;;;;;;;5033694;28;20045;-76
2023/01/15 05:56:38;;;;;;;7.60;2.10;;;;;;;;;;5033331;28;20052;-76
2023/01/15 05:59:05;;;;;;;10.20;2.60;;;;;;;;;;5034715;28;20129;-76
2023/01/15 06:01:31;;;;;;;10.70;2.60;;;;;;;;;;5026179;28;20042;-77
2023/01/15 06:03:57;;;;;;;7.05;2.30;;;;;;;;;;5015191;28;20484;-76
2023/01/15 06:06:23;;;;;;;9.07;2.45;;;;;;;;;;5034442;28;20053;-77
2023/01/15 06:08:49;;;;;;;7.13;2.63;;;;;;;;;;5021104;28;20046;-76
2023/01/15 06:11:15;;;;;;;8.73;2.30;;;;;;;;;;5016187;28;20060;-76
2023/01/15 06:13:41;;;;;;;10.30;2.50;;;;;;;;;;5014897;28;20046;-77
2023/01/15 06:16:09;;;;;;;10.30;2.58;;;;;;;;;;5020315;28;20503;-76
2023/01/15 06:18:39;;;;;;;11.75;2.53;;;;;;;;;;5034052;28;20116;-76
2023/01/15 06:21:05;;;;;;;12.77;2.83;;;;;;;;;;5033510;28;20056;-76
2023/01/15 06:23:35;;;;;;;10.35;2.80;;;;;;;;;;5014313;28;20046;-76
2023/01/15 06:26:01;;;;;;;5.68;2.08;;;;;;;;;;5031549;28;20063;-76
2023/01/15 06:28:27;;;;;;;15.18;2.75;;;;;;;;;;5033933;28;20423;-76
2023/01/15 06:30:53;;;;;;;8.80;2.30;;;;;;;;;;5028350;28;20130;-77
2023/01/15 06:33:20;;;;;;;8.48;2.33;;;;;;;;;;5015449;28;20058;-76
2023/01/15 06:35:46;;;;;;;12.15;2.85;;;;;;;;;;5014360;28;20104;-76
2023/01/15 06:38:12;;;;;;;9.45;2.70;;;;;;;;;;5014785;28;20060;-76
2023/01/15 06:40:38;;;;;;;10.32;2.70;;;;;;;;;;5014277;28;20117;-76
2023/01/15 06:48:34;;;;;;;12.02;3.70;;;;;;;;;;5013829;28;20500;-76
2023/01/15 06:51:00;;;;;;;15.13;2.97;;;;;;;;;;5015775;28;20125;-76
2023/01/15 06:53:26;;;;;;;9.45;2.25;;;;;;;;;;5033381;28;20124;-77
2023/01/15 06:55:52;;;;;;;8.40;2.55;;;;;;;;;;5018154;28;20077;-76
2023/01/15 06:58:21;;;;;;;7.20;2.50;;;;;;;;;;5017357;28;20049;-77
2023/01/15 07:00:53;;;;;;;9.80;2.42;;;;;;;;;;5028887;28;20093;-77
2023/01/15 07:03:19;;;;;;;8.65;1.90;;;;;;;;;;5017871;28;20061;-76
2023/01/15 07:05:45;;;;;;;8.75;2.45;;;;;;;;;;5026124;28;20079;-77
2023/01/15 07:08:11;;;;;;;7.32;2.30;;;;;;;;;;5030833;28;20069;-76
2023/01/15 07:10:37;;;;;;;10.43;2.33;;;;;;;;;;5015770;28;20053;-76
2023/01/15 07:13:04;;;;;;;10.13;2.40;;;;;;;;;;5013549;28;20441;-76
2023/01/15 07:15:30;;;;;;;7.45;2.55;;;;;;;;;;5012756;28;20089;-76
2023/01/15 07:17:56;;;;;;;9.77;2.40;;;;;;;;;;5024922;28;20140;-77
2023/01/15 07:20:23;;;;;;;8.63;2.65;;;;;;;;;;5013606;28;20374;-77
2023/01/15 07:22:50;;;;;;;8.52;2.40;;;;;;;;;;5014130;28;20538;-77
2023/01/15 07:25:16;;;;;;;9.93;2.13;;;;;;;;;;5012608;28;20077;-77
2023/01/15 07:27:42;;;;;;;8.90;2.47;;;;;;;;;;4997220;28;20058;-77
2023/01/15 07:30:08;;;;;;;10.65;2.53;;;;;;;;;;5041865;28;20048;-77
2023/01/15 07:32:34;;;;;;;7.45;2.17;;;;;;;;;;5013772;28;20041;-77
2023/01/15 07:35:00;;;;;;;7.15;2.65;;;;;;;;;;5015337;28;20041;-77
2023/01/15 07:37:42;;;;;;;9.40;2.60;;;;;;;;;;5013613;28;20133;-77
2023/01/15 07:40:11;;;;;;;9.80;2.30;;;;;;;;;;5029187;28;20033;-77
2023/01/15 07:51:06;;;;;;;9.38;2.50;;;;;;;;;;5018141;28;20050;-77
2023/01/15 07:53:32;;;;;;;8.45;2.38;;;;;;;;;;5021833;28;20034;-77
2023/01/15 07:55:58;;;;;;;5.53;2.15;;;;;;;;;;5016577;28;20048;-77
2023/01/15 07:58:24;;;;;;;4.75;1.98;;;;;;;;;;5016680;28;20053;-77
2023/01/15 08:00:53;;;;;;;9.07;2.13;;;;;;;;;;5019063;28;20052;-78
2023/01/15 08:03:36;;;;;;;7.55;2.20;;;;;;;;;;5027335;28;20045;-78
2023/01/15 08:06:02;;;;;;;8.38;2.63;;;;;;;;;;5022743;28;20053;-76
2023/01/15 08:08:28;;;;;;;9.30;3.10;;;;;;;;;;5026403;28;20104;-77
2023/01/15 08:16:30;;;;;;;6.95;2.40;;;;;;;;;;5016166;28;20046;-76
2023/01/15 08:18:56;;;;;;;9.90;2.50;;;;;;;;;;5016532;28;20050;-76
2023/01/15 08:21:22;;;;;;;12.65;2.72;;;;;;;;;;5017482;28;20050;-76
2023/01/15 08:23:49;;;;;;;5.38;2.28;;;;;;;;;;5016905;28;20064;-76
2023/01/15 08:26:15;;;;;;;8.88;2.03;;;;;;;;;;5016816;28;20104;-76
2023/01/15 08:28:41;;;;;;;6.75;2.65;;;;;;;;;;5016451;28;20045;-75
2023/01/15 08:31:07;;;;;;;10.52;2.83;;;;;;;;;;5016634;28;20431;-77
2023/01/15 08:33:33;;;;;;;8.07;2.38;;;;;;;;;;5017325;28;20045;-77
2023/01/15 08:35:59;;;;;;;12.88;2.47;;;;;;;;;;5022867;28;20053;-76
2023/01/15 08:38:26;;;;;;;9.45;2.70;;;;;;;;;;5034893;28;20042;-77
2023/01/15 08:41:02;;;;;;;9.40;2.90;;;;;;;;;;5024250;28;20094;-77
2023/01/15 08:43:31;;;;;;;7.93;2.80;;;;;;;;;;5036198;28;20045;-77
2023/01/15 08:45:58;;;;;;;8.68;2.45;;;;;;;;;;5035980;28;20095;-77
2023/01/15 08:48:24;;;;;;;9.48;2.67;;;;;;;;;;5035944;28;20400;-77
2023/01/15 08:50:50;;;;;;;5.95;2.10;;;;;;;;;;5036030;28;20088;-77
2023/01/15 08:53:18;;;;;;;13.77;3.75;;;;;;;;;;5017485;28;20060;-77
2023/01/15 08:55:44;;;;;;;14.02;3.10;;;;;;;;;;5034206;28;20172;-77
2023/01/15 08:58:10;;;;;;;9.07;3.25;;;;;;;;;;5030804;28;20096;-77
2023/01/15 09:00:36;;;;;;;9.68;2.67;;;;;;;;;;5015901;28;20042;-77
2023/01/15 09:03:02;;;;;;;12.20;3.53;;;;;;;;;;5015917;28;20049;-77
2023/01/15 09:05:29;;;;;;;8.27;2.30;;;;;;;;;;5031428;28;20034;-77
2023/01/15 09:07:55;;;;;;;11.13;2.83;;;;;;;;;;5016171;28;20041;-78
2023/01/15 09:10:22;;;;;;;9.27;2.60;;;;;;;;;;5016349;28;20053;-78
2023/01/15 09:15:43;;;;;;;9.50;2.95;;;;;;;;;;5016657;28;20046;-79
2023/01/15 09:18:11;;;;;;;12.15;2.90;;;;;;;;;;5016622;28;20132;-79
2023/01/15 09:20:37;;;;;;;8.13;2.83;;;;;;;;;;5016347;28;20057;-78
2023/01/15 09:23:03;;;;;;;9.07;3.28;;;;;;;;;;5017508;28;20112;-79
2023/01/15 09:25:29;;;;;;;11.23;2.60;;;;;;;;;;5017404;28;20129;-78
2023/01/15 09:27:56;;;;;;;10.82;2.30;;;;;;;;;;5017994;28;20049;-79
2023/01/15 09:30:22;;;;;;;11.82;2.85;;;;;;;;;;5016739;28;20122;-79
2023/01/15 09:32:48;;;;;;;11.52;3.47;;;;;;;;;;5016134;28;20057;-79
2023/01/15 09:35:15;;;;;;;12.98;2.65;;;;;;;;;;5015980;28;20038;-79
2023/01/15 09:37:41;;;;;;;13.57;3.03;;;;;;;;;;5032394;28;20053;-78
2023/01/15 09:40:08;;;;;;;9.00;2.65;;;;;;;;;;5024211;28;20046;-78
2023/01/15 09:42:57;;;;;;;11.48;2.90;;;;;;;;;;5021686;28;20456;-78
2023/01/15 09:45:56;;;;;;;10.13;3.15;;;;;;;;;;5039233;28;20045;-78
2023/01/15 09:48:31;;;;;;;9.43;2.78;;;;;;;;;;4958413;29;20055;-78
2023/01/15 09:51:02;;;;;;;9.05;2.65;;;;;;;;;;4958941;29;20063;-78
2023/01/15 09:53:39;;;;;;;12.40;2.90;;;;;;;;;;4942489;29;20051;-79
2023/01/15 09:56:11;;;;;;;8.73;2.33;;;;;;;;;;4954527;29;20054;-79
2023/01/15 09:58:38;;;;;;;9.77;2.65;;;;;;;;;;4956173;29;20066;-81
2023/01/15 10:01:05;;;;;;;8.68;3.10;;;;;;;;;;4940337;29;20047;-77
2023/01/15 10:03:42;;;;;;;9.55;3.05;;;;;;;;;;4924190;29;20044;-81
2023/01/15 10:06:20;;;;;;;9.90;2.70;;;;;;;;;;4955680;29;20445;-79
2023/01/15 10:08:49;;;;;;;8.48;2.38;;;;;;;;;;4936434;29;20122;-78
2023/01/15 10:11:15;;;;;;;7.43;2.28;;;;;;;;;;4935517;29;20146;-79
2023/01/15 10:13:41;;;;;;;7.75;2.10;;;;;;;;;;4935403;29;20044;-78
2023/01/15 10:16:08;;;;;;;9.00;2.50;;;;;;;;;;4935385;29;20063;-78
2023/01/15 10:18:35;;;;;;;10.02;2.60;;;;;;;;;;4943067;28;20042;-80
2023/01/15 10:21:15;;;;;;;10.38;2.88;;;;;;;;;;4973206;28;20077;-78
2023/01/15 10:24:03;;;;;;;13.57;2.75;;;;;;;;;;4975270;28;20123;-77
2023/01/15 10:26:39;;;;;;;13.32;3.20;;;;;;;;;;5030471;28;20041;-78
2023/01/15 10:29:08;;;;;;;7.82;3.03;;;;;;;;;;5034871;28;20058;-78
2023/01/15 10:31:54;;;;;;;8.23;2.47;;;;;;;;;;5033834;28;20045;-78
2023/01/15 10:34:20;;;;;;;11.90;2.90;;;;;;;;;;5020600;28;20052;-78
2023/01/15 10:36:50;;;;;;;13.32;2.90;;;;;;;;;;5013866;28;20042;-78
2023/01/15 10:39:28;;;;;;;8.93;2.72;;;;;;;;;;5014254;28;20046;-78
2023/01/15 10:41:57;;;;;;;10.07;3.13;;;;;;;;;;5014098;28;20485;-78
2023/01/15 10:44:43;;;;;;;15.43;3.33;;;;;;;;;;5014058;28;20124;-78
2023/01/15 10:47:12;;;;;;;15.48;3.38;;;;;;;;;;5013367;28;20053;-78
2023/01/15 10:49:42;;;;;;;14.80;3.33;;;;;;;;;;5014663;28;20519;-78
2023/01/15 10:52:11;;;;;;;10.05;3.20;;;;;;;;;;5012345;28;20125;-78
2023/01/15 10:54:37;;;;;;;13.95;3.35;;;;;;;;;;5013914;28;20140;-78
2023/01/15 10:57:12;;;;;;;13.80;4.07;;;;;;;;;;5013809;28;20125;-78
2023/01/15 10:59:48;;;;;;;11.07;2.75;;;;;;;;;;5028996;28;20104;-77
2023/01/15 11:02:14;;;;;;;;;;;;;;;;;;5021601;28;20048;-77
2023/01/15 11:04:40;;;;;;;13.20;2.80;;;;;;;;;;5033466;28;20015;-77
2023/01/15 11:07:09;;;;;;;9.95;2.85;;;;;;;;;;5033668;28;20096;-77
2023/01/15 11:09:36;;;;;;;7.85;2.83;;;;;;;;;;5033106;28;20046;-77
2023/01/15 11:20:20;;;;;;;11.90;3.33;;;;;;;;;;5016529;28;20057;-77
2023/01/15 11:22:46;;;;;;;14.23;3.28;;;;;;;;;;5018026;28;20088;-77
2023/01/15 11:25:12;;;;;;;12.60;3.33;;;;;;;;;;5017767;28;20052;-77
2023/01/15 11:27:39;;;;;;;10.38;2.70;;;;;;;;;;5017716;28;20042;-77
2023/01/15 11:30:06;;;;;;;12.75;2.92;;;;;;;;;;5017283;28;20472;-77
2023/01/15 11:32:34;;;;;;;12.85;3.05;;;;;;;;;;5022739;28;20128;-77
2023/01/15 11:35:01;;;;;;;10.48;3.10;;;;;;;;;;5037503;28;20453;-77
2023/01/15 11:37:28;;;;;;;10.52;3.50;;;;;;;;;;5037703;28;20045;-77
2023/01/15 11:40:07;;;;;;;13.18;3.60;;;;;;;;;;5036911;28;20116;-77
2023/01/15 11:51:07;;;;;;;10.00;2.90;;;;;;;;;;5036288;28;20058;-77
2023/01/15 11:53:38;;;;;;;9.47;3.30;;;;;;;;;;5042203;28;20045;-77
2023/01/15 11:56:06;;;;;;;13.55;3.15;;;;;;;;;;5041646;28;20444;-77
2023/01/15 11:58:44;;;;;;;13.07;2.95;;;;;;;;;;5037212;28;20049;-77
2023/01/15 12:01:14;;;;;;;11.55;4.05;;;;;;;;;;5017661;28;20053;-76
2023/01/15 12:03:40;;;;;;;8.93;3.00;;;;;;;;;;5035739;28;20056;-76
2023/01/15 12:06:09;;;;;;;17.73;3.72;;;;;;;;;;5036693;28;20046;-76
2023/01/15 12:08:35;;;;;;;14.05;3.65;;;;;;;;;;5036388;28;20492;-76
2023/01/15 12:11:12;;;;;;;10.98;2.88;;;;;;;;;;5036421;28;20053;-76
2023/01/15 12:13:38;;;;;;;11.82;3.30;;;;;;;;;;5035313;28;20049;-77
2023/01/15 12:16:11;;;;;;;12.85;3.28;;;;;;;;;;5036469;28;20195;-76
2023/01/15 12:18:56;;;;;;;13.77;3.97;;;;;;;;;;5035524;28;20110;-77
2023/01/15 12:21:45;;;;;;;10.93;3.15;;;;;;;;;;5036329;28;20117;-76
2023/01/15 12:24:21;;;;;;;9.77;3.00;;;;;;;;;;5029266;28;20143;-76
2023/01/15 12:27:15;;;;;;;6.90;2.95;;;;;;;;;;5032822;28;20081;-76
2023/01/15 12:29:57;;;;;;;10.35;2.72;;;;;;;;;;5034307;28;20049;-76
2023/01/15 12:32:33;;;;;;;13.75;3.22;;;;;;;;;;5036132;28;20056;-76
2023/01/15 12:35:07;;;;;;;14.82;3.58;;;;;;;;;;5035816;28;20044;-76
2023/01/15 12:37:40;;;;;;;15.43;3.45;;;;;;;;;;5018544;28;20071;-77
2023/01/15 12:40:14;;;;;;;17.25;4.38;;;;;;;;;;5029118;28;20045;-77
2023/01/15 12:45:27;;;;;;;;;;;;;;;;;;5036352;28;20053;-77
2023/01/15 12:48:05;;;;;;;12.18;3.08;;;;;;;;;;5035735;28;20012;-77
2023/01/15 12:50:38;;;;;;;13.80;2.70;;;;;;;;;;5035991;28;20045;-77
2023/01/15 12:53:04;;;;;;;13.20;3.17;;;;;;;;;;5035757;28;20052;-77
2023/01/15 12:55:36;;;;;;;8.52;3.15;;;;;;;;;;5028575;28;20041;-77
2023/01/15 12:58:23;;;;;;;12.52;2.88;;;;;;;;;;5024030;28;20424;-77
2023/01/15 13:00:49;;;;;;;6.25;3.05;;;;;;;;;;4995103;28;20050;-78
2023/01/15 13:03:29;;;;;;;11.85;3.20;;;;;;;;;;5015425;28;20049;-77
2023/01/15 13:05:59;;;;;;;11.57;2.95;;;;;;;;;;5015872;28;20104;-77
2023/01/15 13:08:28;;;;;;;8.75;2.83;;;;;;;;;;5015509;28;20077;-77
2023/01/15 13:10:54;;;;;;;11.45;3.13;;;;;;;;;;5014877;28;20042;-77
2023/01/15 13:13:23;;;;;;;7.93;2.20;;;;;;;;;;5016263;28;20046;-77
2023/01/15 13:15:49;;;;;;;15.27;2.90;;;;;;;;;;5024927;28;20498;-77
2023/01/15 13:18:15;;;;;;;10.70;2.95;;;;;;;;;;5050546;28;20058;-76
2023/01/15 13:20:41;;;;;;;10.18;2.60;;;;;;;;;;5035265;28;20049;-76
2023/01/15 13:23:09;;;;;;;9.98;2.85;;;;;;;;;;5035239;28;20041;-77
2023/01/15 13:25:41;;;;;;;11.05;2.60;;;;;;;;;;5025258;28;20049;-76
2023/01/15 13:28:27;;;;;;;9.98;2.55;;;;;;;;;;5015822;28;20081;-76
2023/01/15 13:30:59;;;;;;;7.45;2.63;;;;;;;;;;5004304;28;20123;-76
2023/01/15 13:33:46;;;;;;;7.25;3.00;;;;;;;;;;4997865;28;20058;-76
2023/01/15 13:36:15;;;;;;;5.80;2.03;;;;;;;;;;5015852;28;20049;-78
2023/01/15 13:38:47;;;;;;;7.57;2.33;;;;;;;;;;5014744;28;20618;-78
2023/01/15 13:42:30;;;;;;;12.50;2.72;;;;;;;;;;5031031;28;20049;-78
2023/01/15 13:44:04;;;;;;;9.75;2.88;;;;;;;;;;5034124;28;20077;-77
2023/01/15 13:46:31;;;;;;;9.27;2.83;;;;;;;;;;5034777;28;20056;-78
2023/01/15 13:48:57;;;;;;;7.82;3.30;;;;;;;;;;5035126;28;20077;-78
2023/01/15 13:51:31;;;;;;;8.55;3.17;;;;;;;;;;5034801;28;20045;-77
2023/01/15 13:53:59;;;;;;;19.20;3.95;;;;;;;;;;5034039;28;20037;-78
2023/01/15 13:56:31;;;;;;;10.27;3.97;;;;;;;;;;5013738;28;20117;-79
2023/01/15 13:58:57;;;;;;;12.82;3.80;;;;;;;;;;5014872;28;20176;-78
2023/01/15 14:01:42;;;;;;;7.88;3.20;;;;;;;;;;5015055;28;20046;-78
2023/01/15 14:04:23;;;;;;;13.57;3.83;;;;;;;;;;5014493;28;20056;-77
2023/01/15 14:06:52;;;;;;;7.03;2.65;;;;;;;;;;5015454;28;20053;-78
2023/01/15 14:09:21;;;;;;;17.98;3.70;;;;;;;;;;5016144;28;20484;-77
2023/01/15 14:11:47;;;;;;;12.63;3.88;;;;;;;;;;5014043;28;20088;-78
2023/01/15 14:14:26;;;;;;;12.02;2.70;;;;;;;;;;5020066;28;20085;-78
2023/01/15 14:16:58;;;;;;;9.98;2.92;;;;;;;;;;5014313;28;20064;-78
2023/01/15 14:19:30;;;;;;;8.90;3.13;;;;;;;;;;5014875;28;20050;-77
2023/01/15 14:21:56;;;;;;;8.73;2.80;;;;;;;;;;5014149;28;20070;-78
2023/01/15 14:24:42;;;;;;;10.70;3.08;;;;;;;;;;5014441;28;20073;-78
2023/01/15 14:27:15;;;;;;;14.07;2.95;;;;;;;;;;5014514;28;20060;-78
2023/01/15 14:29:58;;;;;;;7.93;2.67;;;;;;;;;;5014518;28;20046;-77
2023/01/15 14:32:43;;;;;;;11.48;4.00;;;;;;;;;;5014804;28;20120;-78
2023/01/15 14:35:18;;;;;;;8.90;2.50;;;;;;;;;;5014149;28;20104;-78
2023/01/15 14:37:47;;;;;;;11.10;3.10;;;;;;;;;;5014675;28;20045;-78
2023/01/15 14:40:28;;;;;;;16.38;3.03;;;;;;;;;;5030350;28;20468;-78
2023/01/15 14:43:03;;;;;;;11.88;3.00;;;;;;;;;;5016151;28;20041;-77
2023/01/15 14:45:32;;;;;;;9.48;3.00;;;;;;;;;;5034279;28;20049;-78
2023/01/15 14:47:59;;;;;;;12.57;3.25;;;;;;;;;;5025484;28;20042;-77
2023/01/15 14:50:37;;;;;;;10.57;3.50;;;;;;;;;;5012318;28;20057;-77
2023/01/15 14:53:12;;;;;;;15.63;4.03;;;;;;;;;;5012832;28;20437;-77
2023/01/15 14:55:42;;;;;;;11.00;3.65;;;;;;;;;;5030646;28;20049;-78
2023/01/15 14:58:15;;;;;;;22.60;3.60;;;;;;;;;;5034016;28;20088;-78
2023/01/15 15:00:43;;;;;;;13.57;3.58;;;;;;;;;;5033591;28;20050;-78
2023/01/15 15:03:13;;;;;;;12.85;3.60;;;;;;;;;;5023140;28;20507;-77
2023/01/15 15:05:41;;;;;;;14.45;4.03;;;;;;;;;;5014229;28;20056;-77
2023/01/15 15:08:13;;;;;;;15.43;3.30;;;;;;;;;;5018081;28;20488;-77
2023/01/15 15:10:42;;;;;;;10.07;4.97;;;;;;;;;;5018979;28;20097;-77
2023/01/15 15:13:17;;;;;;;12.68;3.22;;;;;;;;;;5012576;28;20060;-77
2023/01/15 15:15:47;;;;;;;17.52;4.13;;;;;;;;;;5013863;28;20100;-77
2023/01/15 15:18:53;;;;;;;13.13;3.28;;;;;;;;;;5020643;28;20095;-77
2023/01/15 15:21:25;;;;;;;13.10;3.33;;;;;;;;;;4952919;29;20048;-78
2023/01/15 15:23:54;;;;;;;15.25;4.35;;;;;;;;;;4950854;29;20039;-78
2023/01/15 15:26:36;;;;;;;18.52;3.53;;;;;;;;;;4952210;29;20051;-77
2023/01/15 15:29:04;;;;;;;13.30;3.30;;;;;;;;;;4952714;29;20482;-77
2023/01/15 15:31:34;;;;;;;13.95;3.80;;;;;;;;;;4952909;29;20130;-77
2023/01/15 15:34:00;;;;;;;12.00;3.45;;;;;;;;;;4952448;29;20050;-77
2023/01/15 15:36:28;;;;;;;13.88;3.92;;;;;;;;;;4952816;29;20043;-77
2023/01/15 15:38:56;;;;;;;13.52;3.97;;;;;;;;;;4952925;29;20508;-77
2023/01/15 15:48:40;;;;;;;14.27;4.10;;;;;;;;;;4937023;29;20498;-77
2023/01/15 15:50:04;;;;;;;16.02;4.35;;;;;;;;;;4952636;29;20117;-77
2023/01/15 15:52:34;;;;;;;24.67;4.50;;;;;;;;;;4994877;28;20501;-77